createdAt,value
2022-08-30T00:01:03.748Z,4.72
2022-08-30T00:03:33.079Z,3.65
2022-08-30T00:06:01.089Z,4.10
2022-08-30T00:08:28.416Z,3.78
2022-08-30T00:10:55.736Z,4.10
2022-08-30T00:13:23.299Z,4.00
2022-08-30T00:15:50.464Z,4.32
2022-08-30T00:18:18.397Z,5.35
2022-08-30T00:20:46.910Z,4.30
2022-08-30T00:23:14.118Z,4.18
2022-08-30T00:25:41.326Z,4.25
2022-08-30T00:28:09.619Z,4.55
2022-08-30T00:30:37.076Z,4.45
2022-08-30T00:33:04.708Z,4.30
2022-08-30T00:35:31.920Z,4.50
2022-08-30T00:37:59.017Z,3.95
2022-08-30T00:40:27.806Z,4.40
2022-08-30T00:42:59.606Z,4.30
2022-08-30T00:45:33.282Z,4.60
2022-08-30T00:48:01.203Z,4.70
2022-08-30T00:50:42.311Z,4.57
2022-08-30T00:53:13.508Z,5.15
2022-08-30T00:55:42.071Z,4.88
2022-08-30T00:58:16.651Z,4.60
2022-08-30T01:00:44.003Z,4.60
2022-08-30T01:03:11.142Z,4.40
2022-08-30T01:05:39.296Z,5.38
2022-08-30T01:08:06.674Z,5.00
2022-08-30T01:10:34.968Z,5.25
2022-08-30T01:13:02.483Z,5.43
2022-08-30T01:15:30.306Z,5.82
2022-08-30T01:17:57.580Z,5.45
2022-08-30T01:20:29.891Z,5.30
2022-08-30T01:23:06.939Z,5.25
2022-08-30T01:25:35.846Z,5.40
2022-08-30T01:28:14.218Z,5.57
2022-08-30T01:30:42.983Z,5.72
2022-08-30T01:33:11.706Z,6.32
2022-08-30T01:35:53.640Z,6.75
2022-08-30T01:38:22.620Z,6.28
2022-08-30T01:40:50.479Z,6.43
2022-08-30T01:43:19.174Z,6.07
2022-08-30T01:45:46.074Z,6.05
2022-08-30T01:48:13.355Z,6.53
2022-08-30T01:50:41.319Z,6.28
2022-08-30T01:53:13.288Z,7.57
2022-08-30T01:55:40.543Z,6.95
2022-08-30T01:58:07.695Z,6.65
2022-08-30T02:00:34.396Z,6.20
2022-08-30T02:03:01.653Z,6.38
2022-08-30T02:05:28.751Z,6.47
2022-08-30T02:07:56.515Z,6.30
2022-08-30T02:10:23.593Z,6.47
2022-08-30T02:12:50.688Z,7.40
2022-08-30T02:15:17.815Z,6.95
2022-08-30T02:17:45.471Z,6.65
2022-08-30T02:20:12.825Z,7.10
2022-08-30T02:22:40.193Z,6.80
2022-08-30T02:25:20.594Z,7.32
2022-08-30T02:27:48.255Z,7.30
2022-08-30T02:30:15.484Z,7.47
2022-08-30T02:32:42.573Z,7.15
2022-08-30T02:35:09.527Z,7.30
2022-08-30T02:37:36.899Z,7.32
2022-08-30T02:40:05.996Z,7.57
2022-08-30T02:42:33.173Z,7.00
2022-08-30T02:45:00.629Z,7.93
2022-08-30T02:47:27.516Z,7.28
2022-08-30T02:49:54.620Z,7.32
2022-08-30T02:52:27.493Z,7.07
2022-08-30T02:54:55.160Z,7.30
2022-08-30T02:57:22.977Z,8.32
2022-08-30T02:59:50.113Z,7.13
2022-08-30T03:02:17.040Z,6.63
2022-08-30T03:04:44.966Z,7.35
2022-08-30T03:07:12.663Z,7.20
2022-08-30T03:09:39.820Z,7.18
2022-08-30T03:12:07.726Z,8.57
2022-08-30T03:14:36.236Z,7.60
2022-08-30T03:17:05.404Z,8.38
2022-08-30T03:19:32.489Z,8.18
2022-08-30T03:21:59.680Z,8.20
2022-08-30T03:24:26.794Z,8.63
2022-08-30T03:26:54.050Z,8.00
2022-08-30T03:29:21.228Z,7.88
2022-08-30T03:31:53.272Z,8.65
2022-08-30T03:34:21.804Z,9.02
2022-08-30T03:36:49.557Z,8.75
2022-08-30T03:39:16.674Z,8.48
2022-08-30T03:41:43.884Z,8.55
2022-08-30T03:44:11.013Z,8.88
2022-08-30T03:46:38.135Z,9.30
2022-08-30T03:49:05.963Z,8.55
2022-08-30T03:51:33.792Z,7.88
2022-08-30T03:54:01.621Z,8.50
2022-08-30T03:56:28.981Z,9.25
2022-08-30T03:58:56.074Z,9.88
2022-08-30T04:01:22.780Z,8.68
2022-08-30T04:03:49.936Z,9.35
2022-08-30T04:06:16.630Z,8.57
2022-08-30T04:08:45.903Z,8.45
2022-08-30T04:11:14.927Z,10.48
2022-08-30T04:13:42.175Z,9.20
2022-08-30T04:16:09.854Z,10.77
2022-08-30T04:18:37.191Z,9.20
2022-08-30T04:21:04.488Z,9.27
2022-08-30T04:23:31.562Z,8.88
2022-08-30T04:25:58.989Z,9.15
2022-08-30T04:28:25.915Z,9.93
2022-08-30T04:30:52.783Z,10.32
2022-08-30T04:33:19.978Z,8.57
2022-08-30T04:35:48.984Z,9.73
2022-08-30T04:38:17.186Z,8.40
2022-08-30T04:40:47.092Z,8.82
2022-08-30T04:43:14.488Z,8.63
2022-08-30T04:45:42.217Z,9.38
2022-08-30T04:48:10.482Z,9.48
2022-08-30T04:50:37.632Z,9.48
2022-08-30T04:53:12.048Z,9.40
2022-08-30T04:55:40.737Z,9.18
2022-08-30T04:58:07.888Z,7.90
2022-08-30T05:00:34.938Z,9.30
2022-08-30T05:03:03.133Z,9.38
2022-08-30T05:05:39.735Z,8.77
2022-08-30T05:08:11.598Z,9.45
2022-08-30T05:10:44.125Z,8.80
2022-08-30T05:13:11.747Z,8.55
2022-08-30T05:15:40.239Z,9.07
2022-08-30T05:18:08.856Z,9.00
2022-08-30T05:20:41.119Z,8.63
2022-08-30T05:23:08.282Z,8.25
2022-08-30T05:25:39.334Z,8.25
2022-08-30T05:28:06.304Z,8.32
2022-08-30T05:30:35.267Z,8.60
2022-08-30T05:33:02.516Z,8.65
2022-08-30T05:35:29.656Z,8.23
2022-08-30T05:37:57.111Z,8.70
2022-08-30T05:40:24.476Z,8.38
2022-08-30T05:42:51.902Z,7.88
2022-08-30T05:45:18.658Z,8.10
2022-08-30T05:47:47.723Z,8.68
2022-08-30T05:50:15.560Z,8.18
2022-08-30T05:52:44.218Z,7.80
2022-08-30T05:55:11.973Z,7.55
2022-08-30T05:57:40.266Z,8.05
2022-08-30T06:00:10.984Z,7.93
2022-08-30T06:02:41.628Z,8.00
2022-08-30T06:05:09.435Z,7.82
2022-08-30T06:07:39.669Z,7.70
2022-08-30T06:10:07.220Z,8.50
2022-08-30T06:12:34.554Z,8.50
2022-08-30T06:15:01.750Z,7.57
2022-08-30T06:17:28.878Z,7.28
2022-08-30T06:19:56.190Z,6.68
2022-08-30T06:22:23.458Z,6.20
2022-08-30T06:24:58.289Z,6.47
2022-08-30T06:27:25.374Z,5.88
2022-08-30T06:29:53.166Z,5.88
2022-08-30T06:32:20.287Z,5.82
2022-08-30T06:34:48.267Z,5.55
2022-08-30T06:37:29.191Z,6.00
2022-08-30T06:39:58.341Z,5.40
2022-08-30T06:42:31.826Z,4.90
2022-08-30T06:45:02.484Z,4.95
2022-08-30T06:47:33.411Z,5.13
2022-08-30T06:50:00.572Z,5.22
2022-08-30T06:52:27.626Z,4.93
2022-08-30T06:54:59.018Z,5.05
2022-08-30T06:57:26.928Z,4.68
2022-08-30T06:59:58.126Z,5.35
2022-08-30T07:02:25.352Z,4.40
2022-08-30T07:04:52.271Z,4.63
2022-08-30T07:07:19.155Z,4.18
2022-08-30T07:09:46.041Z,4.13
2022-08-30T07:12:14.236Z,4.18
2022-08-30T07:14:41.549Z,3.70
2022-08-30T07:17:32.498Z,3.28
2022-08-30T07:20:02.781Z,3.03
2022-08-30T07:22:29.506Z,3.10
2022-08-30T07:24:56.787Z,3.33
2022-08-30T07:27:23.652Z,3.10
2022-08-30T07:29:50.535Z,3.05
2022-08-30T07:32:17.337Z,2.90
2022-08-30T07:34:44.668Z,3.15
2022-08-30T07:37:11.592Z,2.97
2022-08-30T07:39:47.842Z,3.03
2022-08-30T07:42:15.447Z,2.55
2022-08-30T07:44:42.140Z,2.70
2022-08-30T07:47:08.900Z,2.10
2022-08-30T07:49:37.300Z,2.10
2022-08-30T07:52:04.701Z,1.65
2022-08-30T07:54:31.878Z,1.80
2022-08-30T07:56:59.072Z,1.45
2022-08-30T07:59:25.835Z,1.52
2022-08-30T08:01:52.862Z,1.40
2022-08-30T08:04:19.684Z,1.55
2022-08-30T08:06:46.626Z,1.60
2022-08-30T08:09:16.065Z,1.67
2022-08-30T08:11:43.582Z,1.42
2022-08-30T08:14:10.802Z,1.52
2022-08-30T08:16:37.959Z,1.52
2022-08-30T08:19:09.186Z,1.60
2022-08-30T08:21:37.095Z,1.50
2022-08-30T08:24:04.509Z,1.27
2022-08-30T08:26:35.620Z,1.40
2022-08-30T08:29:02.921Z,1.40
2022-08-30T08:31:33.375Z,2.00
2022-08-30T08:34:03.087Z,1.27
2022-08-30T08:36:31.450Z,1.40
2022-08-30T08:38:58.937Z,1.40
2022-08-30T08:41:35.799Z,1.27
2022-08-30T08:44:11.697Z,1.42
2022-08-30T08:46:49.424Z,1.17
2022-08-30T08:49:16.762Z,1.50
2022-08-30T08:52:02.139Z,1.35
2022-08-30T08:54:55.545Z,1.50
2022-08-30T08:57:27.272Z,1.40
2022-08-30T08:59:55.028Z,1.20
2022-08-30T09:02:34.493Z,1.40
2022-08-30T09:05:03.113Z,1.48
2022-08-30T09:07:38.350Z,1.40
2022-08-30T09:12:32.573Z,1.30
2022-08-30T09:15:07.043Z,1.40
2022-08-30T09:20:45.875Z,1.30
2022-08-30T09:23:15.825Z,1.50
2022-08-30T09:26:02.317Z,1.52
2022-08-30T09:28:32.824Z,1.35
2022-08-30T09:31:20.425Z,1.40
2022-08-30T09:34:08.778Z,1.63
2022-08-30T09:39:27.532Z,1.65
2022-08-30T09:42:09.816Z,1.52
2022-08-30T09:44:38.607Z,1.52
2022-08-30T09:47:20.955Z,1.42
2022-08-30T09:50:01.743Z,1.40
2022-08-30T09:52:50.882Z,1.30
2022-08-30T09:55:41.903Z,1.40
2022-08-30T09:58:11.180Z,1.45
2022-08-30T10:01:28.012Z,1.50
2022-08-30T10:04:00.915Z,1.60
2022-08-30T10:06:31.131Z,1.50
2022-08-30T10:09:30.687Z,1.33
2022-08-30T10:12:16.912Z,1.30
2022-08-30T10:14:53.543Z,1.20
2022-08-30T10:17:31.071Z,1.65
2022-08-30T10:20:25.066Z,1.50
2022-08-30T10:23:07.644Z,1.42
2022-08-30T10:25:49.015Z,1.50
2022-08-30T10:28:37.906Z,1.83
2022-08-30T10:31:39.553Z,1.45
2022-08-30T10:34:13.847Z,1.75
2022-08-30T10:36:46.212Z,1.73
2022-08-30T10:39:22.483Z,2.08
2022-08-30T10:42:01.115Z,1.60
2022-08-30T10:44:36.769Z,1.80
2022-08-30T10:47:39.339Z,1.65
2022-08-30T10:50:41.522Z,1.70
2022-08-30T10:53:22.280Z,1.98
2022-08-30T10:55:56.460Z,1.80
2022-08-30T10:58:24.119Z,1.67
2022-08-30T11:01:02.588Z,1.63
2022-08-30T11:03:39.867Z,2.00
2022-08-30T11:06:27.134Z,1.80
2022-08-30T11:09:20.496Z,1.67
2022-08-30T11:11:57.052Z,1.90
2022-08-30T11:14:27.363Z,1.70
2022-08-30T11:16:59.309Z,2.10
2022-08-30T11:19:39.836Z,1.75
2022-08-30T11:22:38.132Z,1.73
2022-08-30T11:25:38.704Z,1.52
2022-08-30T11:28:06.488Z,1.63
2022-08-30T11:30:33.170Z,1.75
2022-08-30T11:33:07.915Z,1.73
2022-08-30T11:35:45.968Z,1.52
2022-08-30T11:38:29.848Z,2.13
2022-08-30T11:40:56.699Z,1.58
2022-08-30T11:43:36.882Z,1.73
2022-08-30T11:46:28.684Z,1.90
2022-08-30T11:49:13.931Z,1.60
2022-08-30T11:55:16.136Z,1.77
2022-08-30T11:58:11.867Z,1.90
2022-08-30T12:00:51.589Z,1.50
2022-08-30T12:03:20.758Z,1.65
2022-08-30T12:05:59.066Z,1.60
2022-08-30T12:08:36.051Z,1.70
2022-08-30T12:11:11.929Z,1.60
2022-08-30T12:13:45.038Z,1.90
2022-08-30T12:16:20.399Z,1.73
2022-08-30T12:19:00.271Z,1.70
2022-08-30T12:21:45.087Z,1.60
2022-08-30T12:24:20.863Z,1.67
2022-08-30T12:26:49.515Z,1.63
2022-08-30T12:29:27.950Z,1.52
2022-08-30T12:32:17.435Z,1.63
2022-08-30T12:34:44.131Z,1.58
2022-08-30T12:37:31.375Z,1.77
2022-08-30T12:40:19.967Z,1.67
2022-08-30T12:43:01.914Z,1.50
2022-08-30T12:45:36.983Z,1.52
2022-08-30T12:48:08.209Z,1.77
2022-08-30T12:50:44.803Z,1.60
2022-08-30T12:53:14.394Z,1.98
2022-08-30T12:55:54.320Z,1.73
2022-08-30T12:58:41.675Z,1.70
2022-08-30T13:01:29.849Z,1.88
2022-08-30T13:04:18.296Z,1.60
2022-08-30T13:07:01.842Z,1.70
2022-08-30T13:09:38.424Z,1.65
2022-08-30T13:12:09.727Z,1.83
2022-08-30T13:14:45.272Z,1.70
2022-08-30T13:17:23.604Z,2.03
2022-08-30T13:20:05.680Z,1.55
2022-08-30T13:22:41.211Z,1.58
2022-08-30T13:25:10.442Z,1.80
2022-08-30T13:30:16.355Z,1.85
2022-08-30T13:32:44.022Z,1.40
2022-08-30T13:35:14.465Z,1.60
2022-08-30T13:37:49.409Z,1.50
2022-08-30T13:40:19.848Z,1.63
2022-08-30T13:42:47.236Z,1.67
2022-08-30T13:48:02.793Z,1.98
2022-08-30T13:50:30.896Z,1.60
2022-08-30T13:52:57.938Z,1.80
2022-08-30T13:55:24.983Z,1.67
2022-08-30T13:57:56.087Z,1.77
2022-08-30T14:00:26.051Z,1.65
2022-08-30T14:06:09.940Z,1.60
2022-08-30T14:08:48.864Z,1.70
2022-08-30T14:11:19.835Z,2.00
2022-08-30T14:16:38.659Z,2.10
2022-08-30T14:19:06.384Z,1.30
2022-08-30T14:21:34.883Z,1.80
2022-08-30T14:24:02.145Z,1.65
2022-08-30T14:26:33.236Z,1.67
2022-08-30T14:29:02.176Z,1.55
2022-08-30T14:31:30.155Z,1.80
2022-08-30T14:34:00.121Z,1.60
2022-08-30T14:36:26.994Z,1.85
2022-08-30T14:38:54.091Z,1.65
2022-08-30T14:41:21.279Z,1.98
2022-08-30T14:43:47.952Z,1.75
2022-08-30T14:46:15.160Z,1.98
2022-08-30T14:48:43.118Z,1.83
2022-08-30T14:51:22.831Z,1.90
2022-08-30T14:53:53.742Z,1.70
2022-08-30T14:56:21.985Z,1.80
2022-08-30T14:58:53.903Z,1.52
2022-08-30T15:01:22.517Z,2.17
2022-08-30T15:03:49.471Z,1.58
2022-08-30T15:06:18.520Z,1.95
2022-08-30T15:08:47.864Z,2.20
2022-08-30T15:11:18.087Z,1.85
2022-08-30T15:13:45.327Z,2.47
2022-08-30T15:16:15.460Z,2.00
2022-08-30T15:18:42.801Z,2.08
2022-08-30T15:21:10.536Z,2.03
2022-08-30T15:23:38.197Z,1.52
2022-08-30T15:26:06.796Z,1.83
2022-08-30T15:28:35.160Z,1.90
2022-08-30T15:31:06.298Z,1.70
2022-08-30T15:33:36.047Z,2.20
2022-08-30T15:36:04.906Z,1.52
2022-08-30T15:38:32.760Z,1.48
2022-08-30T15:41:04.417Z,1.40
2022-08-30T15:43:31.832Z,1.52
2022-08-30T15:46:22.572Z,1.60
2022-08-30T15:51:19.677Z,1.60
2022-08-30T15:53:47.027Z,1.77
2022-08-30T15:56:15.824Z,2.00
2022-08-30T15:58:43.833Z,1.20
2022-08-30T16:01:11.202Z,1.40
2022-08-30T16:03:42.679Z,1.48
2022-08-30T16:06:18.287Z,1.60
2022-08-30T16:08:46.423Z,1.63
2022-08-30T16:11:15.595Z,1.48
2022-08-30T16:13:45.080Z,1.48
2022-08-30T16:16:13.889Z,1.70
2022-08-30T16:18:41.690Z,1.40
2022-08-30T16:21:14.344Z,1.55
2022-08-30T16:23:43.594Z,1.40
2022-08-30T16:26:14.646Z,1.42
2022-08-30T16:28:44.677Z,1.30
2022-08-30T16:31:11.565Z,1.50
2022-08-30T16:33:43.060Z,1.50
2022-08-30T16:36:11.783Z,1.40
2022-08-30T16:38:39.700Z,1.30
2022-08-30T16:41:10.347Z,1.33
2022-08-30T16:43:38.949Z,1.33
2022-08-30T16:46:10.705Z,1.52
2022-08-30T16:48:38.186Z,1.38
2022-08-30T16:51:10.514Z,1.55
2022-08-30T16:53:38.161Z,1.90
2022-08-30T16:56:12.344Z,1.60
2022-08-30T16:58:40.813Z,1.25
2022-08-30T17:01:07.652Z,1.70
2022-08-30T17:03:37.855Z,1.70
2022-08-30T17:06:06.158Z,1.48
2022-08-30T17:08:33.820Z,1.55
2022-08-30T17:11:01.050Z,1.30
2022-08-30T17:13:28.823Z,1.50
2022-08-30T17:15:56.869Z,1.70
2022-08-30T17:18:25.606Z,1.77
2022-08-30T17:20:52.285Z,1.42
2022-08-30T17:23:19.498Z,1.70
2022-08-30T17:25:48.896Z,1.50
2022-08-30T17:28:15.687Z,1.38
2022-08-30T17:30:42.520Z,1.75
2022-08-30T17:33:12.063Z,1.23
2022-08-30T17:35:39.785Z,1.33
2022-08-30T17:38:06.926Z,1.70
2022-08-30T17:40:33.726Z,1.83
2022-08-30T17:43:00.943Z,2.00
2022-08-30T17:45:28.081Z,1.48
2022-08-30T17:47:55.980Z,1.92
2022-08-30T17:50:25.678Z,1.80
2022-08-30T17:52:55.996Z,1.65
2022-08-30T17:55:22.675Z,1.60
2022-08-30T17:57:50.942Z,1.65
2022-08-30T18:00:18.414Z,1.65
2022-08-30T18:02:45.616Z,1.58
2022-08-30T18:05:13.045Z,1.50
2022-08-30T18:07:40.580Z,1.42
2022-08-30T18:10:08.062Z,1.60
2022-08-30T18:15:12.470Z,1.42
2022-08-30T18:17:44.423Z,1.42
2022-08-30T18:20:11.640Z,1.42
2022-08-30T18:22:38.760Z,1.55
2022-08-30T18:25:07.975Z,1.48
2022-08-30T18:27:34.686Z,1.60
2022-08-30T18:30:07.429Z,1.70
2022-08-30T18:32:38.733Z,1.30
2022-08-30T18:35:06.505Z,1.40
2022-08-30T18:37:36.055Z,1.60
2022-08-30T18:40:03.983Z,1.30
2022-08-30T18:42:31.503Z,2.17
2022-08-30T18:44:58.175Z,1.33
2022-08-30T18:47:37.260Z,1.70
2022-08-30T18:50:06.648Z,1.77
2022-08-30T18:52:33.790Z,2.00
2022-08-30T18:55:03.191Z,1.42
2022-08-30T18:57:32.761Z,1.70
2022-08-30T18:59:59.690Z,1.70
2022-08-30T19:02:28.072Z,1.50
2022-08-30T19:04:55.409Z,1.52
2022-08-30T19:07:26.704Z,1.20
2022-08-30T19:09:59.012Z,1.80
2022-08-30T19:12:26.310Z,1.60
2022-08-30T19:14:54.467Z,1.50
2022-08-30T19:17:23.965Z,1.60
2022-08-30T19:19:52.402Z,1.45
2022-08-30T19:22:26.555Z,1.67
2022-08-30T19:24:55.386Z,1.77
2022-08-30T19:27:37.369Z,1.70
2022-08-30T19:32:37.492Z,1.75
2022-08-30T19:35:05.254Z,1.65
2022-08-30T19:37:34.320Z,1.55
2022-08-30T19:40:01.991Z,1.83
2022-08-30T19:42:29.333Z,1.55
2022-08-30T19:44:56.197Z,1.38
2022-08-30T19:47:23.385Z,1.85
2022-08-30T19:49:50.501Z,1.80
2022-08-30T19:52:19.248Z,1.60
2022-08-30T19:54:47.745Z,2.25
2022-08-30T19:57:15.984Z,1.80
2022-08-30T19:59:43.126Z,1.77
2022-08-30T20:02:10.252Z,1.80
2022-08-30T20:04:40.928Z,1.95
2022-08-30T20:07:09.673Z,2.00
2022-08-30T20:09:36.927Z,2.25
2022-08-30T20:12:04.879Z,2.33
2022-08-30T20:14:32.219Z,2.33
2022-08-30T20:16:59.347Z,2.40
2022-08-30T20:19:33.555Z,2.70
2022-08-30T20:22:07.686Z,3.00
2022-08-30T20:27:03.667Z,2.65
2022-08-30T20:29:30.874Z,3.10
2022-08-30T20:31:58.029Z,3.13
2022-08-30T20:34:27.699Z,3.03
2022-08-30T20:36:58.026Z,2.92
2022-08-30T20:39:25.357Z,3.05
2022-08-30T20:41:52.490Z,3.00
2022-08-30T20:44:22.819Z,3.20
2022-08-30T20:46:50.721Z,3.13
2022-08-30T20:49:19.671Z,3.10
2022-08-30T20:51:52.811Z,3.08
2022-08-30T20:54:21.796Z,3.40
2022-08-30T20:56:49.952Z,3.30
2022-08-30T20:59:16.885Z,3.25
2022-08-30T21:01:44.072Z,3.00
2022-08-30T21:04:11.282Z,3.10
2022-08-30T21:06:38.870Z,3.58
2022-08-30T21:09:07.597Z,3.30
2022-08-30T21:11:35.975Z,3.08
2022-08-30T21:14:04.350Z,3.03
2022-08-30T21:16:31.362Z,2.83
2022-08-30T21:18:58.136Z,2.90
2022-08-30T21:21:26.592Z,3.00
2022-08-30T21:23:56.888Z,2.88
2022-08-30T21:26:24.478Z,3.03
2022-08-30T21:28:52.914Z,2.88
2022-08-30T21:31:25.490Z,2.90
2022-08-30T21:33:54.951Z,3.08
2022-08-30T21:36:41.975Z,2.75
2022-08-30T21:39:09.309Z,2.70
2022-08-30T21:41:37.960Z,3.45
2022-08-30T21:44:06.762Z,2.50
2022-08-30T21:46:35.320Z,2.85
2022-08-30T21:49:05.075Z,2.50
2022-08-30T21:51:35.160Z,2.83
2022-08-30T21:54:02.529Z,2.33
2022-08-30T21:56:29.690Z,2.63
2022-08-30T21:58:57.038Z,2.65
2022-08-30T22:01:26.372Z,3.25
2022-08-30T22:03:55.915Z,2.60
2022-08-30T22:06:25.254Z,2.65
2022-08-30T22:09:01.143Z,2.25
2022-08-30T22:13:56.196Z,2.53
2022-08-30T22:16:24.028Z,2.17
2022-08-30T22:18:51.459Z,2.40
2022-08-30T22:21:22.585Z,2.38
2022-08-30T22:23:49.631Z,2.45
2022-08-30T22:26:18.612Z,2.45
2022-08-30T22:28:45.402Z,2.33
2022-08-30T22:31:14.571Z,2.38
2022-08-30T22:33:41.904Z,2.10
2022-08-30T22:36:19.373Z,2.25
2022-08-30T22:38:46.526Z,2.47
2022-08-30T22:41:16.579Z,2.05
2022-08-30T22:46:14.022Z,2.50
2022-08-30T22:48:43.719Z,2.35
2022-08-30T22:51:11.281Z,2.10
2022-08-30T22:53:38.684Z,2.00
2022-08-30T22:56:10.835Z,2.20
2022-08-30T22:58:38.513Z,2.25
2022-08-30T23:01:05.756Z,2.13
2022-08-30T23:03:35.157Z,2.05
2022-08-30T23:06:02.717Z,2.10
2022-08-30T23:08:29.452Z,2.33
2022-08-30T23:10:57.947Z,2.00
2022-08-30T23:13:26.161Z,2.15
2022-08-30T23:15:52.859Z,2.15
2022-08-30T23:18:19.919Z,2.17
2022-08-30T23:20:46.718Z,2.10
2022-08-30T23:23:32.051Z,2.00
2022-08-30T23:26:20.732Z,2.00
2022-08-30T23:29:06.939Z,2.00
2022-08-30T23:31:52.261Z,2.08
2022-08-30T23:34:38.182Z,2.00
2022-08-30T23:37:24.114Z,2.08
2022-08-30T23:40:10.215Z,1.85
2022-08-30T23:42:55.722Z,1.75
2022-08-30T23:45:42.095Z,2.28
2022-08-30T23:48:28.147Z,2.50
2022-08-30T23:51:14.147Z,2.10
2022-08-30T23:54:07.834Z,2.08
2022-08-30T23:56:53.916Z,2.20
2022-08-30T23:59:39.592Z,2.30
